Island Grove, Illinois
Current Conditions -  °F | °C
As of 6:15 PM on Friday 28 Nov 2014 (Local Time) from K1H2 Reporting Station
Clear Clear  
Wind Chill: 32°   Ceiling: Unl
Heat Index: 38°   Visibility: 10mi
Dew Point: 28°   Wind: 8mph
Humidity: 68%   Direction: 150°SSE
Pressure: 30.02"   Gusts: NA
Location:  39.1301°N, 88.4695°W
Report Text: K1H2 290015Z AUTO 15007KT 10SM CLR 03/M02 A3002 RMK AO2 T00341020
Loading
Personal Weather Stations






























Interactive Weather Map New forecast layout! Learn more

10-Day Weather Forecast

Advertisements
Track Severe Weather on mobile